sensor_id;sensor_type;location;lat;lon;timestamp;pressure;altitude;pressure_sealevel;temperature;humidity
20930;BME280;21895;47.072;15.132;2023-05-19T00:02:02;97276.00;;;13.76;69.62
20930;BME280;21895;47.072;15.132;2023-05-19T00:04:34;97290.00;;;13.83;70.04
20930;BME280;21895;47.072;15.132;2023-05-19T00:07:02;97281.00;;;13.84;69.94
20930;BME280;21895;47.072;15.132;2023-05-19T00:09:29;97283.00;;;13.64;70.12
20930;BME280;21895;47.072;15.132;2023-05-19T00:11:57;97275.00;;;13.62;69.85
20930;BME280;21895;47.072;15.132;2023-05-19T00:14:24;97275.00;;;13.66;69.02
20930;BME280;21895;47.072;15.132;2023-05-19T00:16:51;97277.00;;;13.65;69.59
20930;BME280;21895;47.072;15.132;2023-05-19T00:19:17;97277.00;;;13.70;69.53
20930;BME280;21895;47.072;15.132;2023-05-19T00:21:44;97275.00;;;13.74;69.14
20930;BME280;21895;47.072;15.132;2023-05-19T00:24:10;97274.00;;;13.82;68.81
20930;BME280;21895;47.072;15.132;2023-05-19T00:26:38;97277.00;;;13.78;69.00
20930;BME280;21895;47.072;15.132;2023-05-19T00:29:05;97269.00;;;13.75;70.66
20930;BME280;21895;47.072;15.132;2023-05-19T00:31:31;97266.00;;;13.73;70.82
20930;BME280;21895;47.072;15.132;2023-05-19T00:33:59;97264.00;;;13.69;70.82
20930;BME280;21895;47.072;15.132;2023-05-19T00:36:25;97269.00;;;13.79;71.03
20930;BME280;21895;47.072;15.132;2023-05-19T00:38:52;97273.00;;;13.79;71.15
20930;BME280;21895;47.072;15.132;2023-05-19T00:41:18;97265.00;;;13.83;71.28
20930;BME280;21895;47.072;15.132;2023-05-19T00:43:46;97263.00;;;13.77;71.36
20930;BME280;21895;47.072;15.132;2023-05-19T00:46:12;97255.00;;;13.61;71.87
20930;BME280;21895;47.072;15.132;2023-05-19T00:48:39;97254.00;;;13.52;72.05
20930;BME280;21895;47.072;15.132;2023-05-19T00:51:06;97262.00;;;13.52;72.18
20930;BME280;21895;47.072;15.132;2023-05-19T00:53:33;97262.00;;;13.55;72.26
20930;BME280;21895;47.072;15.132;2023-05-19T00:56:01;97262.00;;;13.59;72.21
20930;BME280;21895;47.072;15.132;2023-05-19T00:58:30;97261.00;;;13.56;72.08
20930;BME280;21895;47.072;15.132;2023-05-19T01:00:58;97259.00;;;13.57;72.51
20930;BME280;21895;47.072;15.132;2023-05-19T01:03:30;97261.00;;;13.67;72.13
20930;BME280;21895;47.072;15.132;2023-05-19T01:05:57;97255.00;;;13.65;72.35
20930;BME280;21895;47.072;15.132;2023-05-19T01:08:27;97248.00;;;13.57;72.58
20930;BME280;21895;47.072;15.132;2023-05-19T01:10:54;97252.00;;;13.51;72.96
20930;BME280;21895;47.072;15.132;2023-05-19T01:13:21;97252.00;;;13.51;72.69
20930;BME280;21895;47.072;15.132;2023-05-19T01:17:01;97249.00;;;13.44;73.14
20930;BME280;21895;47.072;15.132;2023-05-19T01:31:45;97251.00;;;13.20;74.12
20930;BME280;21895;47.072;15.132;2023-05-19T01:34:15;97248.00;;;13.25;73.44
20930;BME280;21895;47.072;15.132;2023-05-19T01:36:43;97250.00;;;12.96;74.38
20930;BME280;21895;47.072;15.132;2023-05-19T01:39:14;97251.00;;;13.05;74.42
20930;BME280;21895;47.072;15.132;2023-05-19T01:41:42;97255.00;;;13.13;73.84
20930;BME280;21895;47.072;15.132;2023-05-19T01:44:10;97246.00;;;13.00;74.42
20930;BME280;21895;47.072;15.132;2023-05-19T01:46:38;97248.00;;;12.95;74.78
20930;BME280;21895;47.072;15.132;2023-05-19T01:49:05;97239.00;;;12.84;75.62
20930;BME280;21895;47.072;15.132;2023-05-19T01:51:32;97249.00;;;12.77;75.76
20930;BME280;21895;47.072;15.132;2023-05-19T01:53:59;97248.00;;;12.78;75.60
20930;BME280;21895;47.072;15.132;2023-05-19T02:00:28;97258.00;;;12.84;75.74
20930;BME280;21895;47.072;15.132;2023-05-19T02:05:17;97252.00;;;12.80;75.90
20930;BME280;21895;47.072;15.132;2023-05-19T02:08:23;97254.00;;;12.80;75.28
20930;BME280;21895;47.072;15.132;2023-05-19T02:11:00;97246.00;;;12.78;75.55
20930;BME280;21895;47.072;15.132;2023-05-19T02:13:35;97252.00;;;12.77;75.44
20930;BME280;21895;47.072;15.132;2023-05-19T02:16:06;97245.00;;;12.78;75.68
20930;BME280;21895;47.072;15.132;2023-05-19T02:18:33;97237.00;;;12.79;75.17
20930;BME280;21895;47.072;15.132;2023-05-19T02:21:01;97243.00;;;12.78;75.03
20930;BME280;21895;47.072;15.132;2023-05-19T02:23:28;97242.00;;;12.82;75.66
20930;BME280;21895;47.072;15.132;2023-05-19T02:25:54;97247.00;;;12.82;75.92
20930;BME280;21895;47.072;15.132;2023-05-19T02:28:21;97244.00;;;12.80;75.61
20930;BME280;21895;47.072;15.132;2023-05-19T02:30:48;97247.00;;;12.69;75.85
20930;BME280;21895;47.072;15.132;2023-05-19T02:33:14;97240.00;;;12.73;76.34
20930;BME280;21895;47.072;15.132;2023-05-19T02:35:41;97239.00;;;12.82;75.71
20930;BME280;21895;47.072;15.132;2023-05-19T02:38:07;97235.00;;;12.81;74.53
20930;BME280;21895;47.072;15.132;2023-05-19T02:40:34;97237.00;;;12.75;74.49
20930;BME280;21895;47.072;15.132;2023-05-19T02:43:01;97239.00;;;12.82;74.94
20930;BME280;21895;47.072;15.132;2023-05-19T02:45:27;97237.00;;;12.88;74.57
20930;BME280;21895;47.072;15.132;2023-05-19T02:47:54;97235.00;;;12.83;74.54
20930;BME280;21895;47.072;15.132;2023-05-19T02:50:21;97232.00;;;12.85;74.69
20930;BME280;21895;47.072;15.132;2023-05-19T02:52:48;97233.00;;;12.92;74.61
20930;BME280;21895;47.072;15.132;2023-05-19T02:55:15;97236.00;;;12.86;74.62
20930;BME280;21895;47.072;15.132;2023-05-19T02:57:42;97227.00;;;12.92;73.99
20930;BME280;21895;47.072;15.132;2023-05-19T03:00:10;97228.00;;;12.91;73.76
20930;BME280;21895;47.072;15.132;2023-05-19T03:02:36;97233.00;;;12.83;73.66
20930;BME280;21895;47.072;15.132;2023-05-19T03:05:04;97233.00;;;12.83;73.98
20930;BME280;21895;47.072;15.132;2023-05-19T03:07:30;97227.00;;;12.81;74.30
20930;BME280;21895;47.072;15.132;2023-05-19T03:09:58;97234.00;;;12.83;74.21
20930;BME280;21895;47.072;15.132;2023-05-19T03:12:29;97228.00;;;12.82;74.57
20930;BME280;21895;47.072;15.132;2023-05-19T03:14:58;97233.00;;;12.82;74.83
20930;BME280;21895;47.072;15.132;2023-05-19T03:17:25;97232.00;;;12.78;74.78
20930;BME280;21895;47.072;15.132;2023-05-19T03:19:51;97230.00;;;12.80;75.19
20930;BME280;21895;47.072;15.132;2023-05-19T03:22:18;97231.00;;;12.77;75.16
20930;BME280;21895;47.072;15.132;2023-05-19T03:24:46;97231.00;;;12.81;75.17
20930;BME280;21895;47.072;15.132;2023-05-19T03:27:14;97232.00;;;12.85;75.04
20930;BME280;21895;47.072;15.132;2023-05-19T03:29:41;97226.00;;;12.81;74.79
20930;BME280;21895;47.072;15.132;2023-05-19T03:32:08;97234.00;;;12.76;74.93
20930;BME280;21895;47.072;15.132;2023-05-19T03:34:34;97234.00;;;12.76;75.12
20930;BME280;21895;47.072;15.132;2023-05-19T03:37:01;97233.00;;;12.75;74.79
20930;BME280;21895;47.072;15.132;2023-05-19T03:39:27;97225.00;;;12.86;74.64
20930;BME280;21895;47.072;15.132;2023-05-19T03:41:54;97232.00;;;12.78;74.72
20930;BME280;21895;47.072;15.132;2023-05-19T03:44:21;97230.00;;;12.77;74.65
20930;BME280;21895;47.072;15.132;2023-05-19T03:46:48;97228.00;;;12.82;75.12
20930;BME280;21895;47.072;15.132;2023-05-19T03:49:14;97229.00;;;12.85;75.65
20930;BME280;21895;47.072;15.132;2023-05-19T03:51:41;97223.00;;;12.89;75.00
20930;BME280;21895;47.072;15.132;2023-05-19T03:54:09;97230.00;;;12.89;74.22
20930;BME280;21895;47.072;15.132;2023-05-19T03:56:39;97226.00;;;12.96;74.51
20930;BME280;21895;47.072;15.132;2023-05-19T03:59:06;97232.00;;;12.98;74.39
20930;BME280;21895;47.072;15.132;2023-05-19T04:01:33;97229.00;;;12.98;74.68
20930;BME280;21895;47.072;15.132;2023-05-19T04:04:00;97230.00;;;13.05;75.09
20930;BME280;21895;47.072;15.132;2023-05-19T04:06:26;97231.00;;;13.08;74.88
20930;BME280;21895;47.072;15.132;2023-05-19T04:08:53;97233.00;;;13.05;75.33
20930;BME280;21895;47.072;15.132;2023-05-19T04:11:20;97228.00;;;13.04;74.74
20930;BME280;21895;47.072;15.132;2023-05-19T04:13:46;97236.00;;;13.16;74.65
20930;BME280;21895;47.072;15.132;2023-05-19T04:16:13;97244.00;;;13.07;75.30
20930;BME280;21895;47.072;15.132;2023-05-19T04:18:40;97243.00;;;12.99;75.39
20930;BME280;21895;47.072;15.132;2023-05-19T04:21:07;97249.00;;;13.02;75.65
20930;BME280;21895;47.072;15.132;2023-05-19T04:23:34;97251.00;;;12.96;75.78
20930;BME280;21895;47.072;15.132;2023-05-19T04:26:00;97252.00;;;13.04;75.60
20930;BME280;21895;47.072;15.132;2023-05-19T04:28:28;97254.00;;;13.04;75.46
20930;BME280;21895;47.072;15.132;2023-05-19T04:30:55;97261.00;;;13.12;75.08
20930;BME280;21895;47.072;15.132;2023-05-19T04:33:23;97258.00;;;13.13;74.55
20930;BME280;21895;47.072;15.132;2023-05-19T04:35:50;97264.00;;;13.25;73.86
20930;BME280;21895;47.072;15.132;2023-05-19T04:38:16;97260.00;;;13.32;73.22
20930;BME280;21895;47.072;15.132;2023-05-19T04:40:45;97263.00;;;13.36;73.04
20930;BME280;21895;47.072;15.132;2023-05-19T04:43:15;97265.00;;;13.32;73.04
20930;BME280;21895;47.072;15.132;2023-05-19T04:45:43;97272.00;;;13.36;72.66
20930;BME280;21895;47.072;15.132;2023-05-19T04:48:09;97270.00;;;13.34;72.38
20930;BME280;21895;47.072;15.132;2023-05-19T04:50:37;97276.00;;;13.42;72.57
20930;BME280;21895;47.072;15.132;2023-05-19T04:53:08;97269.00;;;13.35;72.95
20930;BME280;21895;47.072;15.132;2023-05-19T04:55:36;97275.00;;;13.35;72.81
20930;BME280;21895;47.072;15.132;2023-05-19T04:58:03;97277.00;;;13.42;72.37
20930;BME280;21895;47.072;15.132;2023-05-19T05:00:30;97278.00;;;13.51;72.39
20930;BME280;21895;47.072;15.132;2023-05-19T05:02:57;97279.00;;;13.51;71.87
20930;BME280;21895;47.072;15.132;2023-05-19T05:05:24;97289.00;;;13.54;71.45
20930;BME280;21895;47.072;15.132;2023-05-19T05:07:51;97289.00;;;13.51;71.47
20930;BME280;21895;47.072;15.132;2023-05-19T05:10:19;97286.00;;;13.49;72.39
20930;BME280;21895;47.072;15.132;2023-05-19T05:12:46;97283.00;;;13.47;73.00
20930;BME280;21895;47.072;15.132;2023-05-19T05:15:13;97288.00;;;13.45;73.24
20930;BME280;21895;47.072;15.132;2023-05-19T05:17:40;97281.00;;;13.42;73.65
20930;BME280;21895;47.072;15.132;2023-05-19T05:20:07;97290.00;;;13.48;73.69
20930;BME280;21895;47.072;15.132;2023-05-19T05:22:35;97282.00;;;13.46;73.38
20930;BME280;21895;47.072;15.132;2023-05-19T05:25:02;97285.00;;;13.49;73.54
20930;BME280;21895;47.072;15.132;2023-05-19T05:27:32;97288.00;;;13.52;73.43
20930;BME280;21895;47.072;15.132;2023-05-19T05:29:58;97300.00;;;13.57;73.41
20930;BME280;21895;47.072;15.132;2023-05-19T05:32:25;97298.00;;;13.63;73.26
20930;BME280;21895;47.072;15.132;2023-05-19T05:34:52;97304.00;;;13.64;73.34
20930;BME280;21895;47.072;15.132;2023-05-19T05:37:18;97303.00;;;13.66;72.94
20930;BME280;21895;47.072;15.132;2023-05-19T05:39:45;97299.00;;;13.67;72.42
20930;BME280;21895;47.072;15.132;2023-05-19T05:42:14;97309.00;;;13.77;71.57
20930;BME280;21895;47.072;15.132;2023-05-19T05:44:41;97311.00;;;13.86;70.86
20930;BME280;21895;47.072;15.132;2023-05-19T05:47:08;97306.00;;;13.98;70.79
20930;BME280;21895;47.072;15.132;2023-05-19T05:49:37;97304.00;;;13.98;70.89
20930;BME280;21895;47.072;15.132;2023-05-19T05:52:07;97309.00;;;14.10;69.88
20930;BME280;21895;47.072;15.132;2023-05-19T05:54:35;97311.00;;;14.14;69.85
20930;BME280;21895;47.072;15.132;2023-05-19T05:57:02;97319.00;;;14.23;69.44
20930;BME280;21895;47.072;15.132;2023-05-19T05:59:29;97319.00;;;14.36;68.50
20930;BME280;21895;47.072;15.132;2023-05-19T06:01:55;97312.00;;;14.35;68.85
20930;BME280;21895;47.072;15.132;2023-05-19T06:04:22;97324.00;;;14.46;68.59
20930;BME280;21895;47.072;15.132;2023-05-19T06:06:49;97324.00;;;14.58;67.86
20930;BME280;21895;47.072;15.132;2023-05-19T06:09:17;97325.00;;;14.65;67.96
20930;BME280;21895;47.072;15.132;2023-05-19T06:11:44;97332.00;;;14.58;66.71
20930;BME280;21895;47.072;15.132;2023-05-19T06:14:10;97327.00;;;14.66;67.43
20930;BME280;21895;47.072;15.132;2023-05-19T06:16:37;97331.00;;;14.71;67.91
20930;BME280;21895;47.072;15.132;2023-05-19T06:19:04;97334.00;;;14.83;67.11
20930;BME280;21895;47.072;15.132;2023-05-19T06:21:30;97336.00;;;14.88;67.07
20930;BME280;21895;47.072;15.132;2023-05-19T06:23:57;97336.00;;;14.74;67.82
20930;BME280;21895;47.072;15.132;2023-05-19T06:26:23;97345.00;;;14.58;68.41
20930;BME280;21895;47.072;15.132;2023-05-19T06:28:50;97344.00;;;14.55;67.82
20930;BME280;21895;47.072;15.132;2023-05-19T06:31:17;97343.00;;;14.53;68.46
20930;BME280;21895;47.072;15.132;2023-05-19T06:33:43;97348.00;;;14.41;68.28
20930;BME280;21895;47.072;15.132;2023-05-19T06:36:10;97344.00;;;14.49;67.87
20930;BME280;21895;47.072;15.132;2023-05-19T06:38:37;97343.00;;;14.53;67.42
20930;BME280;21895;47.072;15.132;2023-05-19T06:41:03;97347.00;;;14.46;67.20
20930;BME280;21895;47.072;15.132;2023-05-19T06:43:30;97351.00;;;14.33;68.17
20930;BME280;21895;47.072;15.132;2023-05-19T06:45:56;97345.00;;;14.22;69.07
20930;BME280;21895;47.072;15.132;2023-05-19T06:48:23;97352.00;;;14.31;69.44
20930;BME280;21895;47.072;15.132;2023-05-19T06:50:50;97349.00;;;14.32;69.72
20930;BME280;21895;47.072;15.132;2023-05-19T06:53:18;97344.00;;;14.35;69.11
20930;BME280;21895;47.072;15.132;2023-05-19T06:55:45;97350.00;;;14.39;69.70
20930;BME280;21895;47.072;15.132;2023-05-19T06:58:25;97353.00;;;14.61;68.79
20930;BME280;21895;47.072;15.132;2023-05-19T07:00:52;97354.00;;;14.59;67.66
20930;BME280;21895;47.072;15.132;2023-05-19T07:03:18;97352.00;;;14.67;66.28
20930;BME280;21895;47.072;15.132;2023-05-19T07:05:45;97352.00;;;14.79;66.59
20930;BME280;21895;47.072;15.132;2023-05-19T07:08:12;97356.00;;;14.83;66.86
20930;BME280;21895;47.072;15.132;2023-05-19T07:10:39;97357.00;;;14.84;66.01
20930;BME280;21895;47.072;15.132;2023-05-19T07:13:05;97362.00;;;14.90;66.22
20930;BME280;21895;47.072;15.132;2023-05-19T07:15:32;97351.00;;;15.12;65.68
20930;BME280;21895;47.072;15.132;2023-05-19T07:17:58;97349.00;;;15.14;65.47
20930;BME280;21895;47.072;15.132;2023-05-19T07:20:25;97351.00;;;15.19;64.46
20930;BME280;21895;47.072;15.132;2023-05-19T07:22:52;97343.00;;;15.26;63.81
20930;BME280;21895;47.072;15.132;2023-05-19T07:25:18;97343.00;;;15.30;63.44
20930;BME280;21895;47.072;15.132;2023-05-19T07:27:45;97337.00;;;15.40;63.61
20930;BME280;21895;47.072;15.132;2023-05-19T07:30:12;97337.00;;;15.40;63.05
20930;BME280;21895;47.072;15.132;2023-05-19T07:32:38;97339.00;;;15.38;62.49
20930;BME280;21895;47.072;15.132;2023-05-19T07:35:05;97336.00;;;15.65;62.33
20930;BME280;21895;47.072;15.132;2023-05-19T07:37:32;97338.00;;;15.71;61.99
20930;BME280;21895;47.072;15.132;2023-05-19T07:39:58;97334.00;;;15.87;60.85
20930;BME280;21895;47.072;15.132;2023-05-19T07:42:25;97338.00;;;16.15;59.17
20930;BME280;21895;47.072;15.132;2023-05-19T07:44:52;97334.00;;;16.28;59.42
20930;BME280;21895;47.072;15.132;2023-05-19T07:47:18;97328.00;;;16.34;59.21
20930;BME280;21895;47.072;15.132;2023-05-19T07:49:45;97333.00;;;16.42;59.44
20930;BME280;21895;47.072;15.132;2023-05-19T07:52:12;97338.00;;;16.64;58.85
20930;BME280;21895;47.072;15.132;2023-05-19T07:54:38;97328.00;;;16.75;58.56
20930;BME280;21895;47.072;15.132;2023-05-19T07:57:05;97333.00;;;16.98;58.21
20930;BME280;21895;47.072;15.132;2023-05-19T07:59:31;97332.00;;;17.17;58.60
20930;BME280;21895;47.072;15.132;2023-05-19T08:01:58;97328.00;;;17.27;57.98
20930;BME280;21895;47.072;15.132;2023-05-19T08:04:25;97326.00;;;17.34;57.29
20930;BME280;21895;47.072;15.132;2023-05-19T08:06:51;97319.00;;;17.47;56.39
20930;BME280;21895;47.072;15.132;2023-05-19T08:09:18;97318.00;;;17.27;56.96
20930;BME280;21895;47.072;15.132;2023-05-19T08:11:44;97311.00;;;17.28;56.28
20930;BME280;21895;47.072;15.132;2023-05-19T08:14:12;97314.00;;;17.30;56.25
20930;BME280;21895;47.072;15.132;2023-05-19T08:16:38;97313.00;;;17.58;56.24
20930;BME280;21895;47.072;15.132;2023-05-19T08:19:07;97307.00;;;17.68;56.23
20930;BME280;21895;47.072;15.132;2023-05-19T08:21:34;97311.00;;;17.89;56.40
20930;BME280;21895;47.072;15.132;2023-05-19T08:24:02;97307.00;;;18.37;55.09
20930;BME280;21895;47.072;15.132;2023-05-19T08:26:29;97304.00;;;18.59;55.42
20930;BME280;21895;47.072;15.132;2023-05-19T08:28:56;97306.00;;;18.57;53.88
20930;BME280;21895;47.072;15.132;2023-05-19T08:31:22;97307.00;;;18.68;53.44
20930;BME280;21895;47.072;15.132;2023-05-19T08:33:50;97303.00;;;19.10;52.64
20930;BME280;21895;47.072;15.132;2023-05-19T08:36:17;97307.00;;;19.23;50.83
20930;BME280;21895;47.072;15.132;2023-05-19T08:38:44;97299.00;;;19.11;52.83
20930;BME280;21895;47.072;15.132;2023-05-19T08:41:11;97298.00;;;19.40;51.45
20930;BME280;21895;47.072;15.132;2023-05-19T08:43:37;97294.00;;;19.81;51.48
20930;BME280;21895;47.072;15.132;2023-05-19T08:46:05;97292.00;;;19.78;50.14
20930;BME280;21895;47.072;15.132;2023-05-19T08:48:38;97279.00;;;19.93;49.74
20930;BME280;21895;47.072;15.132;2023-05-19T08:51:53;97280.00;;;20.01;50.26
20930;BME280;21895;47.072;15.132;2023-05-19T08:54:29;97274.00;;;20.43;51.11
20930;BME280;21895;47.072;15.132;2023-05-19T08:57:00;97278.00;;;20.61;48.71
20930;BME280;21895;47.072;15.132;2023-05-19T08:59:28;97280.00;;;20.87;46.77
20930;BME280;21895;47.072;15.132;2023-05-19T09:01:55;97282.00;;;20.74;48.17
20930;BME280;21895;47.072;15.132;2023-05-19T09:04:24;97275.00;;;20.63;46.95
20930;BME280;21895;47.072;15.132;2023-05-19T09:06:55;97281.00;;;20.56;48.42
20930;BME280;21895;47.072;15.132;2023-05-19T09:09:23;97282.00;;;20.65;48.12
20930;BME280;21895;47.072;15.132;2023-05-19T09:11:50;97278.00;;;20.61;48.46
20930;BME280;21895;47.072;15.132;2023-05-19T09:14:17;97282.00;;;20.67;47.91
20930;BME280;21895;47.072;15.132;2023-05-19T09:16:44;97278.00;;;20.73;47.97
20930;BME280;21895;47.072;15.132;2023-05-19T09:19:14;97278.00;;;20.63;49.24
20930;BME280;21895;47.072;15.132;2023-05-19T09:21:41;97282.00;;;20.46;47.76
20930;BME280;21895;47.072;15.132;2023-05-19T09:24:10;97283.00;;;20.47;48.86
20930;BME280;21895;47.072;15.132;2023-05-19T09:26:39;97289.00;;;20.61;47.95
20930;BME280;21895;47.072;15.132;2023-05-19T09:29:16;97291.00;;;20.55;48.12
20930;BME280;21895;47.072;15.132;2023-05-19T09:31:54;97294.00;;;20.61;47.65
20930;BME280;21895;47.072;15.132;2023-05-19T09:34:25;97287.00;;;20.53;47.51
20930;BME280;21895;47.072;15.132;2023-05-19T09:36:53;97275.00;;;20.48;48.04
20930;BME280;21895;47.072;15.132;2023-05-19T09:39:23;97276.00;;;20.43;47.93
20930;BME280;21895;47.072;15.132;2023-05-19T09:41:55;97282.00;;;20.48;47.65
20930;BME280;21895;47.072;15.132;2023-05-19T09:44:25;97288.00;;;20.79;47.79
20930;BME280;21895;47.072;15.132;2023-05-19T09:46:56;97286.00;;;20.57;48.50
20930;BME280;21895;47.072;15.132;2023-05-19T09:49:26;97277.00;;;20.78;47.57
20930;BME280;21895;47.072;15.132;2023-05-19T09:52:01;97280.00;;;20.60;47.66
20930;BME280;21895;47.072;15.132;2023-05-19T09:54:29;97279.00;;;20.63;47.48
20930;BME280;21895;47.072;15.132;2023-05-19T09:56:59;97278.00;;;20.66;47.47
20930;BME280;21895;47.072;15.132;2023-05-19T09:59:27;97277.00;;;20.54;49.63
20930;BME280;21895;47.072;15.132;2023-05-19T10:01:59;97271.00;;;20.87;47.74
20930;BME280;21895;47.072;15.132;2023-05-19T10:04:28;97282.00;;;20.85;48.83
20930;BME280;21895;47.072;15.132;2023-05-19T10:06:57;97282.00;;;20.86;49.22
20930;BME280;21895;47.072;15.132;2023-05-19T10:09:28;97277.00;;;21.10;46.93
20930;BME280;21895;47.072;15.132;2023-05-19T10:11:56;97270.00;;;21.42;48.13
20930;BME280;21895;47.072;15.132;2023-05-19T10:14:28;97275.00;;;21.73;45.75
20930;BME280;21895;47.072;15.132;2023-05-19T10:16:56;97271.00;;;21.73;45.87
20930;BME280;21895;47.072;15.132;2023-05-19T10:19:26;97275.00;;;21.80;46.17
20930;BME280;21895;47.072;15.132;2023-05-19T10:21:53;97275.00;;;21.84;45.08
20930;BME280;21895;47.072;15.132;2023-05-19T10:24:21;97268.00;;;21.67;46.12
20930;BME280;21895;47.072;15.132;2023-05-19T10:27:04;97268.00;;;21.64;45.27
20930;BME280;21895;47.072;15.132;2023-05-19T10:29:39;97263.00;;;21.66;45.31
20930;BME280;21895;47.072;15.132;2023-05-19T10:32:20;97265.00;;;21.35;46.96
20930;BME280;21895;47.072;15.132;2023-05-19T10:40:32;97263.00;;;20.85;47.49
20930;BME280;21895;47.072;15.132;2023-05-19T10:43:37;97268.00;;;20.89;47.25
20930;BME280;21895;47.072;15.132;2023-05-19T10:46:05;97261.00;;;20.98;46.79
20930;BME280;21895;47.072;15.132;2023-05-19T10:48:33;97266.00;;;20.96;49.50
20930;BME280;21895;47.072;15.132;2023-05-19T10:51:02;97265.00;;;20.97;48.95
20930;BME280;21895;47.072;15.132;2023-05-19T10:53:32;97265.00;;;21.11;48.37
20930;BME280;21895;47.072;15.132;2023-05-19T10:56:01;97267.00;;;21.21;48.01
20930;BME280;21895;47.072;15.132;2023-05-19T11:00:59;97255.00;;;21.08;48.38
20930;BME280;21895;47.072;15.132;2023-05-19T11:03:27;97265.00;;;20.92;49.27
20930;BME280;21895;47.072;15.132;2023-05-19T11:06:29;97265.00;;;20.90;48.37
20930;BME280;21895;47.072;15.132;2023-05-19T11:09:17;97262.00;;;21.09;46.89
20930;BME280;21895;47.072;15.132;2023-05-19T11:11:51;97261.00;;;21.20;47.31
20930;BME280;21895;47.072;15.132;2023-05-19T11:14:31;97256.00;;;21.36;45.56
20930;BME280;21895;47.072;15.132;2023-05-19T11:16:59;97252.00;;;21.61;47.81
20930;BME280;21895;47.072;15.132;2023-05-19T11:19:28;97254.00;;;21.98;43.58
20930;BME280;21895;47.072;15.132;2023-05-19T11:21:56;97253.00;;;22.23;43.35
20930;BME280;21895;47.072;15.132;2023-05-19T11:25:49;97255.00;;;22.35;44.25
20930;BME280;21895;47.072;15.132;2023-05-19T11:28:18;97252.00;;;22.17;45.29
20930;BME280;21895;47.072;15.132;2023-05-19T11:30:48;97244.00;;;22.67;44.30
20930;BME280;21895;47.072;15.132;2023-05-19T11:33:19;97239.00;;;23.03;41.85
20930;BME280;21895;47.072;15.132;2023-05-19T11:35:50;97235.00;;;23.09;44.27
20930;BME280;21895;47.072;15.132;2023-05-19T11:38:18;97239.00;;;23.10;43.60
20930;BME280;21895;47.072;15.132;2023-05-19T11:40:47;97242.00;;;23.02;43.72
20930;BME280;21895;47.072;15.132;2023-05-19T11:43:15;97240.00;;;22.90;42.79
20930;BME280;21895;47.072;15.132;2023-05-19T11:45:41;97244.00;;;22.48;43.67
20930;BME280;21895;47.072;15.132;2023-05-19T11:48:11;97237.00;;;22.54;43.68
20930;BME280;21895;47.072;15.132;2023-05-19T11:50:41;97232.00;;;22.56;43.57
20930;BME280;21895;47.072;15.132;2023-05-19T11:53:11;97230.00;;;22.43;42.43
20930;BME280;21895;47.072;15.132;2023-05-19T11:55:45;97221.00;;;22.57;42.93
20930;BME280;21895;47.072;15.132;2023-05-19T11:58:13;97222.00;;;22.72;43.67
20930;BME280;21895;47.072;15.132;2023-05-19T12:00:42;97220.00;;;22.83;41.36
20930;BME280;21895;47.072;15.132;2023-05-19T12:03:11;97224.00;;;22.75;42.12
20930;BME280;21895;47.072;15.132;2023-05-19T12:05:43;97226.00;;;22.71;42.52
20930;BME280;21895;47.072;15.132;2023-05-19T12:08:15;97220.00;;;22.64;41.96
20930;BME280;21895;47.072;15.132;2023-05-19T12:10:47;97224.00;;;22.12;42.77
20930;BME280;21895;47.072;15.132;2023-05-19T12:13:14;97221.00;;;21.84;44.23
20930;BME280;21895;47.072;15.132;2023-05-19T12:15:40;97212.00;;;21.87;45.36
20930;BME280;21895;47.072;15.132;2023-05-19T12:18:07;97206.00;;;21.83;43.39
20930;BME280;21895;47.072;15.132;2023-05-19T12:20:35;97201.00;;;21.84;45.49
20930;BME280;21895;47.072;15.132;2023-05-19T12:23:03;97204.00;;;21.82;43.70
20930;BME280;21895;47.072;15.132;2023-05-19T12:25:30;97199.00;;;21.82;45.07
20930;BME280;21895;47.072;15.132;2023-05-19T12:28:01;97202.00;;;21.91;44.22
20930;BME280;21895;47.072;15.132;2023-05-19T12:30:31;97197.00;;;21.57;44.75
20930;BME280;21895;47.072;15.132;2023-05-19T12:33:00;97197.00;;;21.09;44.98
20930;BME280;21895;47.072;15.132;2023-05-19T12:35:30;97193.00;;;21.06;46.28
20930;BME280;21895;47.072;15.132;2023-05-19T12:38:08;97196.00;;;21.22;45.28
20930;BME280;21895;47.072;15.132;2023-05-19T12:40:35;97190.00;;;21.56;44.50
20930;BME280;21895;47.072;15.132;2023-05-19T12:43:03;97183.00;;;22.06;43.43
20930;BME280;21895;47.072;15.132;2023-05-19T12:45:35;97196.00;;;22.22;42.93
20930;BME280;21895;47.072;15.132;2023-05-19T12:48:10;97194.00;;;22.27;43.63
20930;BME280;21895;47.072;15.132;2023-05-19T12:50:37;97186.00;;;22.46;42.18
20930;BME280;21895;47.072;15.132;2023-05-19T12:53:09;97189.00;;;22.36;42.80
20930;BME280;21895;47.072;15.132;2023-05-19T12:55:41;97190.00;;;22.28;42.39
20930;BME280;21895;47.072;15.132;2023-05-19T12:58:12;97194.00;;;21.96;42.66
20930;BME280;21895;47.072;15.132;2023-05-19T13:00:43;97185.00;;;22.06;43.55
20930;BME280;21895;47.072;15.132;2023-05-19T13:03:16;97182.00;;;22.37;43.51
20930;BME280;21895;47.072;15.132;2023-05-19T13:05:49;97178.00;;;22.27;42.07
20930;BME280;21895;47.072;15.132;2023-05-19T13:08:20;97174.00;;;22.33;43.49
20930;BME280;21895;47.072;15.132;2023-05-19T13:10:48;97180.00;;;22.44;42.84
20930;BME280;21895;47.072;15.132;2023-05-19T13:13:15;97174.00;;;22.64;42.37
20930;BME280;21895;47.072;15.132;2023-05-19T13:15:44;97183.00;;;22.75;41.98
20930;BME280;21895;47.072;15.132;2023-05-19T13:18:12;97172.00;;;22.65;42.43
20930;BME280;21895;47.072;15.132;2023-05-19T13:20:40;97180.00;;;22.53;42.95
20930;BME280;21895;47.072;15.132;2023-05-19T13:23:10;97185.00;;;22.52;43.22
20930;BME280;21895;47.072;15.132;2023-05-19T13:25:39;97175.00;;;22.27;43.86
20930;BME280;21895;47.072;15.132;2023-05-19T13:28:06;97178.00;;;22.10;43.15